createdAt,value
2018-03-07T10:14:26.035Z,85.95
2018-03-07T10:16:53.653Z,85.39
2018-03-07T10:19:21.209Z,85.22
2018-03-07T10:21:48.823Z,84.34
2018-03-07T10:24:16.408Z,84.07
2018-03-07T10:26:43.971Z,84.38
2018-03-07T10:29:11.558Z,84.57
2018-03-07T10:31:40.432Z,84.68
2018-03-07T10:34:08.223Z,84.62
2018-03-07T10:36:35.828Z,85.08
2018-03-07T10:39:03.449Z,85.25
2018-03-07T10:41:31.014Z,85.83
2018-03-07T10:43:59.550Z,85.50
2018-03-07T10:46:27.534Z,85.74
2018-03-07T10:48:55.197Z,85.68
2018-03-07T10:51:22.778Z,85.79
2018-03-07T10:53:50.447Z,85.94
2018-03-07T10:56:18.057Z,85.04
2018-03-07T10:58:46.497Z,85.30
2018-03-07T11:01:14.051Z,85.37
2018-03-07T11:03:41.625Z,85.32
2018-03-07T11:06:09.183Z,83.74
2018-03-07T11:08:36.764Z,84.62
2018-03-07T11:11:04.324Z,84.83
2018-03-07T11:13:31.919Z,84.70
2018-03-07T11:15:59.485Z,85.42
2018-03-07T11:18:27.324Z,85.65
2018-03-07T11:20:55.519Z,84.27
2018-03-07T11:23:23.106Z,84.38
2018-03-07T11:25:50.673Z,84.00
2018-03-07T11:28:18.330Z,84.48
2018-03-07T11:30:45.932Z,85.10
2018-03-07T11:33:13.562Z,85.47
2018-03-07T11:35:41.113Z,84.54
2018-03-07T11:38:08.678Z,84.55
2018-03-07T11:40:36.267Z,84.85
2018-03-07T11:43:03.842Z,85.06
2018-03-07T11:45:31.766Z,85.10
2018-03-07T11:47:59.357Z,85.30
2018-03-07T11:50:26.974Z,84.99
2018-03-07T11:52:54.869Z,86.03
2018-03-07T11:55:23.072Z,85.19
2018-03-07T11:57:50.696Z,85.49
2018-03-07T12:00:18.562Z,85.51
2018-03-07T12:02:48.297Z,85.49
2018-03-07T12:05:16.180Z,85.38
2018-03-07T12:07:43.741Z,85.93
2018-03-07T12:10:11.679Z,85.69
2018-03-07T12:12:39.846Z,85.90
2018-03-07T12:15:07.505Z,85.23
2018-03-07T12:17:35.649Z,85.66
2018-03-07T12:20:03.860Z,85.43
2018-03-07T12:22:32.040Z,85.93
2018-03-07T12:25:00.110Z,85.54
2018-03-07T12:27:28.082Z,85.50
2018-03-07T12:29:56.426Z,85.50
2018-03-07T12:32:24.223Z,85.37
2018-03-07T12:34:51.867Z,85.30
2018-03-07T12:37:19.449Z,85.59
2018-03-07T12:39:47.306Z,85.73
2018-03-07T12:42:14.861Z,85.57
2018-03-07T12:44:42.456Z,84.61
2018-03-07T12:47:10.709Z,84.61
2018-03-07T12:49:38.410Z,86.13
2018-03-07T12:52:06.095Z,86.33
2018-03-07T12:54:33.709Z,86.06
2018-03-07T12:57:01.785Z,86.20
2018-03-07T12:59:29.476Z,86.05
2018-03-07T13:01:57.056Z,85.81
2018-03-07T13:04:24.643Z,85.81
2018-03-07T13:06:52.959Z,86.03
2018-03-07T13:09:20.708Z,86.27
2018-03-07T13:11:48.256Z,86.26
2018-03-07T13:14:15.868Z,86.85
2018-03-07T13:16:43.691Z,87.00
2018-03-07T13:19:11.282Z,86.87
2018-03-07T13:21:38.834Z,86.39
2018-03-07T13:24:06.442Z,86.72
2018-03-07T13:26:33.992Z,86.69
2018-03-07T13:29:01.793Z,86.76
2018-03-07T13:31:29.432Z,87.06
2018-03-07T13:33:57.056Z,86.76
2018-03-07T13:36:26.903Z,86.97
2018-03-07T13:38:54.511Z,87.27
2018-03-07T13:41:22.370Z,87.44
2018-03-07T13:43:49.953Z,87.48
2018-03-07T13:46:18.233Z,87.15
2018-03-07T13:48:45.875Z,87.17
2018-03-07T13:51:13.560Z,87.41
2018-03-07T13:53:41.203Z,87.82
2018-03-07T13:56:08.787Z,87.31
2018-03-07T13:58:36.587Z,86.66
2018-03-07T14:01:04.223Z,86.71
2018-03-07T14:03:31.844Z,86.64
2018-03-07T14:05:59.422Z,86.37
2018-03-07T14:08:27.062Z,86.09
2018-03-07T14:10:54.644Z,86.50
2018-03-07T14:13:22.235Z,86.56
2018-03-07T14:15:49.831Z,86.77
2018-03-07T14:18:17.734Z,86.95
2018-03-07T14:20:45.331Z,87.52
2018-03-07T14:23:13.129Z,87.04
2018-03-07T14:25:41.040Z,86.95
2018-03-07T14:28:09.091Z,87.22
2018-03-07T14:30:36.704Z,87.37
2018-03-07T14:33:04.269Z,87.68
2018-03-07T14:35:32.016Z,87.50
2018-03-07T14:37:59.615Z,87.33
2018-03-07T14:40:27.215Z,87.38
2018-03-07T14:42:54.780Z,87.19
2018-03-07T14:45:22.689Z,88.16
2018-03-07T14:47:50.248Z,87.85
2018-03-07T14:50:17.819Z,87.52
2018-03-07T14:52:45.427Z,87.81
2018-03-07T14:55:13.093Z,88.08
2018-03-07T14:57:40.770Z,88.16
2018-03-07T15:00:09.332Z,88.27
2018-03-07T15:02:37.823Z,88.41
2018-03-07T15:05:05.781Z,88.62
2018-03-07T15:07:33.936Z,88.70
2018-03-07T15:10:01.539Z,88.89
2018-03-07T15:12:29.102Z,88.94
2018-03-07T15:14:56.673Z,88.95
2018-03-07T15:17:24.238Z,88.89
2018-03-07T15:19:51.857Z,88.72
2018-03-07T15:22:19.796Z,88.45
2018-03-07T15:24:47.368Z,88.53
2018-03-07T15:27:14.927Z,88.41
2018-03-07T15:29:42.544Z,88.70
2018-03-07T15:32:10.119Z,89.76
2018-03-07T15:34:37.945Z,89.88
2018-03-07T15:37:05.576Z,89.59
2018-03-07T15:39:33.485Z,89.71
2018-03-07T15:42:01.156Z,90.04
2018-03-07T15:44:28.731Z,89.89
2018-03-07T15:46:56.309Z,89.76
2018-03-07T15:49:23.939Z,89.62
2018-03-07T15:51:51.539Z,89.61
2018-03-07T15:54:19.102Z,89.99
2018-03-07T15:56:46.712Z,89.85
2018-03-07T15:59:14.273Z,90.12
2018-03-07T16:01:41.852Z,89.69
2018-03-07T16:04:09.413Z,89.25
2018-03-07T16:06:37.009Z,89.39
2018-03-07T16:09:04.606Z,89.61
2018-03-07T16:11:32.761Z,89.50
2018-03-07T16:14:00.322Z,89.04
2018-03-07T16:16:27.880Z,89.14
2018-03-07T16:18:55.461Z,89.11
2018-03-07T16:21:23.032Z,88.99
2018-03-07T16:23:50.631Z,88.95
2018-03-07T16:26:18.562Z,89.12
2018-03-07T16:28:46.174Z,89.13
2018-03-07T16:31:13.887Z,89.48
2018-03-07T16:33:41.453Z,89.99
2018-03-07T16:36:09.037Z,90.22
2018-03-07T16:38:36.678Z,89.94
2018-03-07T16:41:04.255Z,89.88
2018-03-07T16:43:31.818Z,90.28
2018-03-07T16:46:00.092Z,90.16
2018-03-07T16:48:27.659Z,90.18
2018-03-07T16:50:55.251Z,90.22
2018-03-07T16:53:22.816Z,89.79
2018-03-07T16:55:51.185Z,90.04
2018-03-07T16:58:18.782Z,90.01
2018-03-07T17:00:46.338Z,89.68
2018-03-07T17:03:13.925Z,89.60
2018-03-07T17:05:41.485Z,89.41
2018-03-07T17:08:09.069Z,89.28
2018-03-07T17:10:36.913Z,89.12
2018-03-07T17:13:04.780Z,88.96
2018-03-07T17:15:32.393Z,89.02
2018-03-07T17:17:59.987Z,89.25
2018-03-07T17:20:27.534Z,89.76
2018-03-07T17:22:55.096Z,90.07
2018-03-07T17:25:22.813Z,90.28
2018-03-07T17:27:50.483Z,90.25
2018-03-07T17:30:18.045Z,90.44
2018-03-07T17:32:45.631Z,91.08
2018-03-07T17:35:13.191Z,91.00
2018-03-07T17:37:41.449Z,90.93
2018-03-07T17:40:09.028Z,90.46
2018-03-07T17:42:36.640Z,90.29
2018-03-07T17:45:05.321Z,90.18
2018-03-07T17:47:32.896Z,89.81
2018-03-07T17:50:00.463Z,89.30
2018-03-07T17:52:28.209Z,88.91
2018-03-07T17:54:56.069Z,88.89
2018-03-07T17:57:23.715Z,88.60
2018-03-07T17:59:51.403Z,88.62
2018-03-07T18:02:18.983Z,88.62
2018-03-07T18:04:46.632Z,88.82
2018-03-07T18:07:14.327Z,88.74
2018-03-07T18:09:41.953Z,88.76
2018-03-07T18:12:09.527Z,88.64
2018-03-07T18:14:37.084Z,88.46
2018-03-07T18:17:04.656Z,88.30
2018-03-07T18:19:32.207Z,88.16
2018-03-07T18:22:00.017Z,88.11
2018-03-07T18:24:27.752Z,87.90
2018-03-07T18:26:55.332Z,88.12
2018-03-07T18:29:22.903Z,88.24
2018-03-07T18:31:50.618Z,88.42
2018-03-07T18:34:18.208Z,88.61
2018-03-07T18:36:45.828Z,88.67
2018-03-07T18:39:13.796Z,88.68
2018-03-07T18:41:41.377Z,88.53
2018-03-07T18:44:09.067Z,88.48
2018-03-07T18:46:36.655Z,88.40
2018-03-07T18:49:04.362Z,88.54
2018-03-07T18:51:31.927Z,88.43
2018-03-07T18:53:59.529Z,88.18
2018-03-07T18:56:27.107Z,87.96
2018-03-07T18:58:54.723Z,88.02
2018-03-07T19:01:23.089Z,87.98
2018-03-07T19:03:57.913Z,87.88
2018-03-07T19:06:27.304Z,87.70
2018-03-07T19:09:07.419Z,87.51
2018-03-07T19:11:36.195Z,87.38
2018-03-07T19:14:04.445Z,87.11
2018-03-07T19:16:32.019Z,87.12
2018-03-07T19:18:59.638Z,87.11
2018-03-07T19:21:27.185Z,86.82
2018-03-07T19:23:54.845Z,86.73
2018-03-07T19:26:22.398Z,86.71
2018-03-07T19:28:50.314Z,86.28
2018-03-07T19:31:17.897Z,86.84
2018-03-07T19:33:45.465Z,87.10
2018-03-07T19:36:13.038Z,87.29
2018-03-07T19:38:40.625Z,87.39
2018-03-07T19:41:08.948Z,87.32
2018-03-07T19:43:36.587Z,87.33
2018-03-07T19:46:04.152Z,87.11
2018-03-07T19:48:32.398Z,86.77
2018-03-07T19:51:00.127Z,87.09
2018-03-07T19:53:27.720Z,86.77
2018-03-07T19:55:55.630Z,87.04
2018-03-07T19:58:23.212Z,87.03
2018-03-07T20:00:50.787Z,87.08
2018-03-07T20:03:18.364Z,86.97
2018-03-07T20:05:45.974Z,87.18
2018-03-07T20:08:13.618Z,86.98
2018-03-07T20:10:41.186Z,86.70
2018-03-07T20:13:08.766Z,86.83
2018-03-07T20:15:37.215Z,86.41
2018-03-07T20:18:05.210Z,86.16
2018-03-07T20:20:32.774Z,86.03
2018-03-07T20:23:00.353Z,86.02
2018-03-07T20:25:28.001Z,86.09
2018-03-07T20:27:55.627Z,86.13
2018-03-07T20:30:23.244Z,86.10
2018-03-07T20:32:51.019Z,86.27
2018-03-07T20:35:19.568Z,86.19
2018-03-07T20:37:47.216Z,86.59
2018-03-07T20:40:15.108Z,86.59
2018-03-07T20:42:42.892Z,86.55
2018-03-07T20:45:10.575Z,86.53
2018-03-07T20:47:38.404Z,86.26
2018-03-07T20:50:06.017Z,86.17
2018-03-07T20:52:33.611Z,86.21
2018-03-07T20:55:01.247Z,86.17
2018-03-07T20:57:28.906Z,86.05
2018-03-07T20:59:56.598Z,86.03
2018-03-07T21:02:24.704Z,85.64
2018-03-07T21:04:53.166Z,86.01
2018-03-07T21:07:20.780Z,86.15
2018-03-07T21:09:48.377Z,86.01
2018-03-07T21:12:15.953Z,86.04
2018-03-07T21:14:43.627Z,86.41
2018-03-07T21:17:11.421Z,86.43
2018-03-07T21:19:39.354Z,86.49
2018-03-07T21:22:07.759Z,86.84
2018-03-07T21:24:35.384Z,86.88
2018-03-07T21:27:03.255Z,87.03
2018-03-07T21:29:30.865Z,86.94
2018-03-07T21:31:58.419Z,87.24
2018-03-07T21:34:26.033Z,87.32
2018-03-07T21:36:53.590Z,87.22
2018-03-07T21:39:21.189Z,87.17
2018-03-07T21:41:48.807Z,87.36
2018-03-07T21:44:16.462Z,87.27
2018-03-07T21:46:44.078Z,87.30
2018-03-07T21:49:11.697Z,87.18
2018-03-07T21:51:39.280Z,87.13
2018-03-07T21:54:06.877Z,87.06
2018-03-07T21:56:34.510Z,86.85
2018-03-07T21:59:02.173Z,86.26
2018-03-07T22:01:30.135Z,86.46
2018-03-07T22:03:57.941Z,86.52
2018-03-07T22:06:25.604Z,86.98
2018-03-07T22:08:53.426Z,87.27
2018-03-07T22:11:21.000Z,87.20
2018-03-07T22:13:48.640Z,87.18
2018-03-07T22:16:16.203Z,87.41
2018-03-07T22:18:43.787Z,87.54
2018-03-07T22:21:11.394Z,87.67
2018-03-07T22:23:39.080Z,87.46
2018-03-07T22:26:06.754Z,87.62
2018-03-07T22:28:34.364Z,87.57
2018-03-07T22:31:02.018Z,87.51
2018-03-07T22:33:29.651Z,87.56
2018-03-07T22:35:57.322Z,87.49
2018-03-07T22:38:24.904Z,87.48
2018-03-07T22:40:52.500Z,87.67
2018-03-07T22:43:20.120Z,87.56
2018-03-07T22:45:47.777Z,87.46
2018-03-07T22:48:15.365Z,87.36
2018-03-07T22:50:43.045Z,87.02
2018-03-07T22:53:10.642Z,87.02
2018-03-07T22:55:38.478Z,87.13
2018-03-07T22:58:06.187Z,87.20
2018-03-07T23:00:39.253Z,87.10
2018-03-07T23:03:07.076Z,87.11
2018-03-07T23:05:34.736Z,87.14
2018-03-07T23:08:02.405Z,87.18
2018-03-07T23:10:30.005Z,87.29
2018-03-07T23:12:57.572Z,87.28
2018-03-07T23:15:28.050Z,87.18
2018-03-07T23:17:55.623Z,87.01
2018-03-07T23:20:23.184Z,87.19
2018-03-07T23:22:50.784Z,87.17
2018-03-07T23:25:18.382Z,87.11
2018-03-07T23:27:46.048Z,86.74
2018-03-07T23:30:13.686Z,86.77
2018-03-07T23:32:41.238Z,87.28
2018-03-07T23:35:09.029Z,87.45
2018-03-07T23:37:36.608Z,87.49
2018-03-07T23:40:06.282Z,87.80
2018-03-07T23:42:33.948Z,87.75
2018-03-07T23:45:01.512Z,87.88
2018-03-07T23:47:29.853Z,88.16
2018-03-07T23:49:58.024Z,88.26
2018-03-07T23:52:25.605Z,88.13
2018-03-07T23:54:54.930Z,88.13
2018-03-07T23:57:22.799Z,88.07
2018-03-07T23:59:50.502Z,88.01
